sensor_id;sensor_type;location;lat;lon;timestamp;temperature;humidity
69938;DHT22;57248;47.320;15.998;2023-02-28T00:00:11;-2.39;72.10
69938;DHT22;57248;47.320;15.998;2023-02-28T00:02:44;-2.49;72.53
69938;DHT22;57248;47.320;15.998;2023-02-28T00:05:20;-2.48;72.35
69938;DHT22;57248;47.320;15.998;2023-02-28T00:07:53;-2.45;71.87
69938;DHT22;57248;47.320;15.998;2023-02-28T00:10:27;-2.44;71.78
69938;DHT22;57248;47.320;15.998;2023-02-28T00:13:07;-2.45;71.16
69938;DHT22;57248;47.320;15.998;2023-02-28T00:15:38;-2.49;71.92
69938;DHT22;57248;47.320;15.998;2023-02-28T00:18:04;-2.46;72.45
69938;DHT22;57248;47.320;15.998;2023-02-28T00:20:37;-2.48;72.80
69938;DHT22;57248;47.320;15.998;2023-02-28T00:23:08;-2.55;73.33
69938;DHT22;57248;47.320;15.998;2023-02-28T00:25:41;-2.48;73.26
69938;DHT22;57248;47.320;15.998;2023-02-28T00:28:13;-2.50;74.07
69938;DHT22;57248;47.320;15.998;2023-02-28T00:30:45;-2.52;74.09
69938;DHT22;57248;47.320;15.998;2023-02-28T00:33:17;-2.49;73.54
69938;DHT22;57248;47.320;15.998;2023-02-28T00:35:49;-2.42;72.38
69938;DHT22;57248;47.320;15.998;2023-02-28T00:38:20;-2.62;75.62
69938;DHT22;57248;47.320;15.998;2023-02-28T00:40:52;-2.48;75.68
69938;DHT22;57248;47.320;15.998;2023-02-28T00:43:24;-2.48;75.79
69938;DHT22;57248;47.320;15.998;2023-02-28T00:45:57;-2.46;75.47
69938;DHT22;57248;47.320;15.998;2023-02-28T00:48:29;-2.45;75.86
69938;DHT22;57248;47.320;15.998;2023-02-28T00:51:02;-2.49;76.52
69938;DHT22;57248;47.320;15.998;2023-02-28T00:53:34;-2.46;76.04
69938;DHT22;57248;47.320;15.998;2023-02-28T00:56:06;-2.42;75.06
69938;DHT22;57248;47.320;15.998;2023-02-28T00:58:38;-2.34;75.19
69938;DHT22;57248;47.320;15.998;2023-02-28T01:01:03;-2.35;75.27
69938;DHT22;57248;47.320;15.998;2023-02-28T01:03:37;-2.34;75.43
69938;DHT22;57248;47.320;15.998;2023-02-28T01:06:10;-2.45;75.95
69938;DHT22;57248;47.320;15.998;2023-02-28T01:08:42;-2.39;75.34
69938;DHT22;57248;47.320;15.998;2023-02-28T01:11:15;-2.39;75.59
69938;DHT22;57248;47.320;15.998;2023-02-28T01:13:48;-2.42;76.05
69938;DHT22;57248;47.320;15.998;2023-02-28T01:16:27;-2.39;76.29
69938;DHT22;57248;47.320;15.998;2023-02-28T01:18:58;-2.38;74.36
69938;DHT22;57248;47.320;15.998;2023-02-28T01:21:31;-2.36;75.05
69938;DHT22;57248;47.320;15.998;2023-02-28T01:24:04;-2.36;74.56
69938;DHT22;57248;47.320;15.998;2023-02-28T01:26:30;-2.46;75.38
69938;DHT22;57248;47.320;15.998;2023-02-28T01:29:06;-2.50;75.79
69938;DHT22;57248;47.320;15.998;2023-02-28T01:31:38;-2.50;75.53
69938;DHT22;57248;47.320;15.998;2023-02-28T01:34:10;-2.57;76.14
69938;DHT22;57248;47.320;15.998;2023-02-28T01:36:42;-2.55;76.36
69938;DHT22;57248;47.320;15.998;2023-02-28T01:39:14;-2.55;76.79
69938;DHT22;57248;47.320;15.998;2023-02-28T01:41:46;-2.57;76.98
69938;DHT22;57248;47.320;15.998;2023-02-28T01:47:22;-2.69;78.69
69938;DHT22;57248;47.320;15.998;2023-02-28T01:49:56;-2.65;78.10
69938;DHT22;57248;47.320;15.998;2023-02-28T01:52:30;-2.59;77.93
69938;DHT22;57248;47.320;15.998;2023-02-28T01:55:04;-2.60;78.50
69938;DHT22;57248;47.320;15.998;2023-02-28T01:57:47;-2.56;78.77
69938;DHT22;57248;47.320;15.998;2023-02-28T02:00:22;-2.56;78.56
69938;DHT22;57248;47.320;15.998;2023-02-28T02:03:01;-2.56;78.80
69938;DHT22;57248;47.320;15.998;2023-02-28T02:05:39;-2.50;78.02
69938;DHT22;57248;47.320;15.998;2023-02-28T02:08:16;-2.52;78.26
69938;DHT22;57248;47.320;15.998;2023-02-28T02:10:52;-2.53;77.71
69938;DHT22;57248;47.320;15.998;2023-02-28T02:25:28;-2.77;78.07
69938;DHT22;57248;47.320;15.998;2023-02-28T02:39:52;-3.00;77.58
69938;DHT22;57248;47.320;15.998;2023-02-28T02:42:55;-3.07;77.70
69938;DHT22;57248;47.320;15.998;2023-02-28T02:45:38;-3.01;78.67
69938;DHT22;57248;47.320;15.998;2023-02-28T02:48:16;-3.11;79.06
69938;DHT22;57248;47.320;15.998;2023-02-28T02:50:54;-3.11;79.42
69938;DHT22;57248;47.320;15.998;2023-02-28T02:53:39;-3.08;79.63
69938;DHT22;57248;47.320;15.998;2023-02-28T02:56:13;-3.05;79.44
69938;DHT22;57248;47.320;15.998;2023-02-28T02:58:46;-3.07;79.91
69938;DHT22;57248;47.320;15.998;2023-02-28T03:01:22;-3.08;79.81
69938;DHT22;57248;47.320;15.998;2023-02-28T03:04:05;-3.07;79.17
69938;DHT22;57248;47.320;15.998;2023-02-28T03:06:41;-3.04;78.47
69938;DHT22;57248;47.320;15.998;2023-02-28T03:09:13;-3.04;78.34
69938;DHT22;57248;47.320;15.998;2023-02-28T03:11:54;-3.14;78.82
69938;DHT22;57248;47.320;15.998;2023-02-28T03:17:46;-3.25;78.82
69938;DHT22;57248;47.320;15.998;2023-02-28T03:20:38;-3.30;78.76
69938;DHT22;57248;47.320;15.998;2023-02-28T03:23:17;-3.42;80.11
69938;DHT22;57248;47.320;15.998;2023-02-28T03:26:02;-3.41;79.90
69938;DHT22;57248;47.320;15.998;2023-02-28T03:28:41;-3.37;80.66
69938;DHT22;57248;47.320;15.998;2023-02-28T03:31:22;-3.41;80.52
69938;DHT22;57248;47.320;15.998;2023-02-28T03:34:04;-3.42;80.63
69938;DHT22;57248;47.320;15.998;2023-02-28T03:36:41;-3.44;80.49
69938;DHT22;57248;47.320;15.998;2023-02-28T03:39:21;-3.41;80.78
69938;DHT22;57248;47.320;15.998;2023-02-28T03:42:00;-3.34;80.46
69938;DHT22;57248;47.320;15.998;2023-02-28T03:44:38;-3.35;80.83
69938;DHT22;57248;47.320;15.998;2023-02-28T03:47:17;-3.35;80.52
69938;DHT22;57248;47.320;15.998;2023-02-28T03:49:57;-3.35;80.77
69938;DHT22;57248;47.320;15.998;2023-02-28T03:52:33;-3.37;80.50
69938;DHT22;57248;47.320;15.998;2023-02-28T03:55:10;-3.34;80.72
69938;DHT22;57248;47.320;15.998;2023-02-28T03:57:54;-3.37;80.89
69938;DHT22;57248;47.320;15.998;2023-02-28T04:00:31;-3.34;81.68
69938;DHT22;57248;47.320;15.998;2023-02-28T04:03:05;-3.35;81.92
69938;DHT22;57248;47.320;15.998;2023-02-28T04:05:31;-3.25;82.40
69938;DHT22;57248;47.320;15.998;2023-02-28T04:08:06;-3.31;82.64
69938;DHT22;57248;47.320;15.998;2023-02-28T04:10:38;-3.24;82.90
69938;DHT22;57248;47.320;15.998;2023-02-28T04:13:15;-3.19;81.87
69938;DHT22;57248;47.320;15.998;2023-02-28T04:15:47;-3.22;81.51
69938;DHT22;57248;47.320;15.998;2023-02-28T04:18:19;-3.14;81.98
69938;DHT22;57248;47.320;15.998;2023-02-28T04:20:52;-3.11;81.40
69938;DHT22;57248;47.320;15.998;2023-02-28T04:23:17;-3.09;80.99
69938;DHT22;57248;47.320;15.998;2023-02-28T04:25:50;-3.07;81.66
69938;DHT22;57248;47.320;15.998;2023-02-28T04:28:23;-3.04;81.41
69938;DHT22;57248;47.320;15.998;2023-02-28T04:31:00;-2.98;81.52
69938;DHT22;57248;47.320;15.998;2023-02-28T04:33:33;-2.97;81.70
69938;DHT22;57248;47.320;15.998;2023-02-28T04:36:07;-2.87;82.10
69938;DHT22;57248;47.320;15.998;2023-02-28T04:38:40;-2.50;81.96
69938;DHT22;57248;47.320;15.998;2023-02-28T04:41:12;-2.66;81.27
69938;DHT22;57248;47.320;15.998;2023-02-28T04:43:45;-2.67;81.72
69938;DHT22;57248;47.320;15.998;2023-02-28T04:46:17;-2.66;81.30
69938;DHT22;57248;47.320;15.998;2023-02-28T04:48:50;-2.60;81.08
69938;DHT22;57248;47.320;15.998;2023-02-28T04:51:22;-2.49;81.24
69938;DHT22;57248;47.320;15.998;2023-02-28T04:53:54;-2.53;80.57
69938;DHT22;57248;47.320;15.998;2023-02-28T04:56:26;-2.53;81.47
69938;DHT22;57248;47.320;15.998;2023-02-28T04:58:58;-2.57;81.75
69938;DHT22;57248;47.320;15.998;2023-02-28T05:01:33;-2.52;82.58
69938;DHT22;57248;47.320;15.998;2023-02-28T05:04:06;-2.49;82.74
69938;DHT22;57248;47.320;15.998;2023-02-28T05:06:38;-2.46;82.31
69938;DHT22;57248;47.320;15.998;2023-02-28T05:09:10;-2.44;81.67
69938;DHT22;57248;47.320;15.998;2023-02-28T05:11:45;-2.48;81.62
69938;DHT22;57248;47.320;15.998;2023-02-28T05:14:23;-2.42;81.36
69938;DHT22;57248;47.320;15.998;2023-02-28T05:16:56;-2.38;81.15
69938;DHT22;57248;47.320;15.998;2023-02-28T05:19:28;-2.41;80.79
69938;DHT22;57248;47.320;15.998;2023-02-28T05:21:54;-2.44;81.01
69938;DHT22;57248;47.320;15.998;2023-02-28T05:24:28;-2.39;80.11
69938;DHT22;57248;47.320;15.998;2023-02-28T05:26:54;-2.31;80.30
69938;DHT22;57248;47.320;15.998;2023-02-28T05:29:26;-2.31;80.53
69938;DHT22;57248;47.320;15.998;2023-02-28T05:31:58;-2.31;80.75
69938;DHT22;57248;47.320;15.998;2023-02-28T05:34:23;-2.25;81.06
69938;DHT22;57248;47.320;15.998;2023-02-28T05:36:55;-2.25;80.73
69938;DHT22;57248;47.320;15.998;2023-02-28T05:39:28;-2.15;82.01
69938;DHT22;57248;47.320;15.998;2023-02-28T05:42:00;-2.14;80.56
69938;DHT22;57248;47.320;15.998;2023-02-28T05:44:33;-2.09;80.34
69938;DHT22;57248;47.320;15.998;2023-02-28T05:47:05;-2.12;80.08
69938;DHT22;57248;47.320;15.998;2023-02-28T05:49:37;-2.11;80.53
69938;DHT22;57248;47.320;15.998;2023-02-28T05:52:09;-2.09;80.51
69938;DHT22;57248;47.320;15.998;2023-02-28T05:54:34;-1.97;82.38
69938;DHT22;57248;47.320;15.998;2023-02-28T05:57:06;-1.99;80.52
69938;DHT22;57248;47.320;15.998;2023-02-28T05:59:38;-1.94;80.44
69938;DHT22;57248;47.320;15.998;2023-02-28T06:02:13;-1.88;79.71
69938;DHT22;57248;47.320;15.998;2023-02-28T06:04:45;-1.90;79.85
69938;DHT22;57248;47.320;15.998;2023-02-28T06:07:17;-1.83;80.16
69938;DHT22;57248;47.320;15.998;2023-02-28T06:09:49;-1.80;80.25
69938;DHT22;57248;47.320;15.998;2023-02-28T06:12:21;-1.74;79.07
69938;DHT22;57248;47.320;15.998;2023-02-28T06:14:53;-1.78;77.14
69938;DHT22;57248;47.320;15.998;2023-02-28T06:17:32;-1.76;76.76
69938;DHT22;57248;47.320;15.998;2023-02-28T06:20:05;-1.71;76.34
69938;DHT22;57248;47.320;15.998;2023-02-28T06:22:38;-1.68;77.07
69938;DHT22;57248;47.320;15.998;2023-02-28T06:25:11;-1.63;78.19
69938;DHT22;57248;47.320;15.998;2023-02-28T06:27:43;-1.57;80.99
69938;DHT22;57248;47.320;15.998;2023-02-28T06:30:16;-1.52;79.82
69938;DHT22;57248;47.320;15.998;2023-02-28T06:32:48;-1.50;79.41
69938;DHT22;57248;47.320;15.998;2023-02-28T06:35:21;-1.46;78.09
69938;DHT22;57248;47.320;15.998;2023-02-28T06:37:53;-1.42;76.18
69938;DHT22;57248;47.320;15.998;2023-02-28T06:40:25;-1.39;75.21
69938;DHT22;57248;47.320;15.998;2023-02-28T06:42:57;-1.34;76.31
69938;DHT22;57248;47.320;15.998;2023-02-28T06:45:29;-1.25;77.09
69938;DHT22;57248;47.320;15.998;2023-02-28T06:47:55;-1.25;78.25
69938;DHT22;57248;47.320;15.998;2023-02-28T06:50:27;-1.25;78.20
69938;DHT22;57248;47.320;15.998;2023-02-28T06:52:54;-1.22;78.30
69938;DHT22;57248;47.320;15.998;2023-02-28T06:55:27;-1.15;78.21
69938;DHT22;57248;47.320;15.998;2023-02-28T06:57:59;-1.18;78.01
69938;DHT22;57248;47.320;15.998;2023-02-28T07:00:31;-1.08;76.79
69938;DHT22;57248;47.320;15.998;2023-02-28T07:03:03;-1.09;76.16
69938;DHT22;57248;47.320;15.998;2023-02-28T07:05:36;-1.08;76.98
69938;DHT22;57248;47.320;15.998;2023-02-28T07:08:09;-1.05;76.58
69938;DHT22;57248;47.320;15.998;2023-02-28T07:10:41;-1.08;76.15
69938;DHT22;57248;47.320;15.998;2023-02-28T07:13:20;-0.97;76.74
69938;DHT22;57248;47.320;15.998;2023-02-28T07:15:57;-0.84;75.95
69938;DHT22;57248;47.320;15.998;2023-02-28T07:18:30;-0.74;75.54
69938;DHT22;57248;47.320;15.998;2023-02-28T07:21:08;-0.71;75.90
69938;DHT22;57248;47.320;15.998;2023-02-28T07:23:40;-0.66;75.02
69938;DHT22;57248;47.320;15.998;2023-02-28T07:26:16;-0.57;74.80
69938;DHT22;57248;47.320;15.998;2023-02-28T07:28:50;-0.53;74.25
69938;DHT22;57248;47.320;15.998;2023-02-28T07:31:22;-0.49;74.31
69938;DHT22;57248;47.320;15.998;2023-02-28T07:33:47;-0.38;73.90
69938;DHT22;57248;47.320;15.998;2023-02-28T07:36:20;-0.36;73.55
69938;DHT22;57248;47.320;15.998;2023-02-28T07:38:52;-0.38;73.07
69938;DHT22;57248;47.320;15.998;2023-02-28T07:41:24;-0.34;73.46
69938;DHT22;57248;47.320;15.998;2023-02-28T07:43:59;-0.30;73.11
69938;DHT22;57248;47.320;15.998;2023-02-28T07:46:32;-0.22;72.48
69938;DHT22;57248;47.320;15.998;2023-02-28T07:49:00;-0.23;72.11
69938;DHT22;57248;47.320;15.998;2023-02-28T07:51:34;-0.23;72.35
69938;DHT22;57248;47.320;15.998;2023-02-28T07:54:07;-0.16;72.00
69938;DHT22;57248;47.320;15.998;2023-02-28T07:56:39;-0.26;70.76
69938;DHT22;57248;47.320;15.998;2023-02-28T07:59:11;-0.30;68.79
69938;DHT22;57248;47.320;15.998;2023-02-28T08:01:43;-0.30;70.05
69938;DHT22;57248;47.320;15.998;2023-02-28T08:04:17;2.42;88.66
69938;DHT22;57248;47.320;15.998;2023-02-28T08:06:49;0.62;71.21
69938;DHT22;57248;47.320;15.998;2023-02-28T08:09:26;0.15;70.98
69938;DHT22;57248;47.320;15.998;2023-02-28T08:11:58;0.16;70.69
69938;DHT22;57248;47.320;15.998;2023-02-28T08:14:30;0.39;74.38
69938;DHT22;57248;47.320;15.998;2023-02-28T08:17:11;0.11;70.58
69938;DHT22;57248;47.320;15.998;2023-02-28T08:19:45;0.14;70.96
69938;DHT22;57248;47.320;15.998;2023-02-28T08:22:18;0.12;70.98
69938;DHT22;57248;47.320;15.998;2023-02-28T08:24:43;0.12;70.34
69938;DHT22;57248;47.320;15.998;2023-02-28T08:27:16;0.06;70.57
69938;DHT22;57248;47.320;15.998;2023-02-28T08:29:50;0.05;71.48
69938;DHT22;57248;47.320;15.998;2023-02-28T08:32:22;0.18;71.64
69938;DHT22;57248;47.320;15.998;2023-02-28T08:34:55;0.11;72.51
69938;DHT22;57248;47.320;15.998;2023-02-28T08:37:28;0.12;73.09
69938;DHT22;57248;47.320;15.998;2023-02-28T08:39:53;0.14;73.07
69938;DHT22;57248;47.320;15.998;2023-02-28T08:42:25;0.02;73.24
69938;DHT22;57248;47.320;15.998;2023-02-28T08:44:57;0.38;73.07
69938;DHT22;57248;47.320;15.998;2023-02-28T08:47:29;0.28;72.96
69938;DHT22;57248;47.320;15.998;2023-02-28T08:50:12;0.32;72.54
69938;DHT22;57248;47.320;15.998;2023-02-28T08:52:51;0.39;72.62
69938;DHT22;57248;47.320;15.998;2023-02-28T08:55:24;0.42;72.26
69938;DHT22;57248;47.320;15.998;2023-02-28T08:57:56;0.42;72.46
69938;DHT22;57248;47.320;15.998;2023-02-28T09:00:30;0.60;73.06
69938;DHT22;57248;47.320;15.998;2023-02-28T09:03:01;0.67;72.31
69938;DHT22;57248;47.320;15.998;2023-02-28T09:05:33;0.70;72.11
69938;DHT22;57248;47.320;15.998;2023-02-28T09:08:05;0.85;72.67
69938;DHT22;57248;47.320;15.998;2023-02-28T09:10:37;0.97;71.94
69938;DHT22;57248;47.320;15.998;2023-02-28T09:13:09;0.87;71.76
69938;DHT22;57248;47.320;15.998;2023-02-28T09:15:37;0.97;71.01
69938;DHT22;57248;47.320;15.998;2023-02-28T09:18:08;0.95;71.30
69938;DHT22;57248;47.320;15.998;2023-02-28T09:20:42;1.04;72.37
69938;DHT22;57248;47.320;15.998;2023-02-28T09:23:13;0.97;72.48
69938;DHT22;57248;47.320;15.998;2023-02-28T09:25:51;0.88;73.05
69938;DHT22;57248;47.320;15.998;2023-02-28T09:28:23;0.80;72.48
69938;DHT22;57248;47.320;15.998;2023-02-28T09:30:55;0.90;71.76
69938;DHT22;57248;47.320;15.998;2023-02-28T09:33:28;1.04;70.90
69938;DHT22;57248;47.320;15.998;2023-02-28T09:36:02;1.14;71.34
69938;DHT22;57248;47.320;15.998;2023-02-28T09:38:36;1.00;71.28
69938;DHT22;57248;47.320;15.998;2023-02-28T09:41:16;1.28;70.72
69938;DHT22;57248;47.320;15.998;2023-02-28T09:43:52;1.46;70.03
69938;DHT22;57248;47.320;15.998;2023-02-28T09:46:42;1.56;70.57
69938;DHT22;57248;47.320;15.998;2023-02-28T09:49:33;1.48;70.26
69938;DHT22;57248;47.320;15.998;2023-02-28T09:52:10;1.35;70.01
69938;DHT22;57248;47.320;15.998;2023-02-28T09:54:43;1.69;69.50
69938;DHT22;57248;47.320;15.998;2023-02-28T09:57:34;1.65;69.74
69938;DHT22;57248;47.320;15.998;2023-02-28T10:00:33;1.84;69.11
69938;DHT22;57248;47.320;15.998;2023-02-28T10:03:14;1.87;68.82
69938;DHT22;57248;47.320;15.998;2023-02-28T10:08:40;2.27;67.54
69938;DHT22;57248;47.320;15.998;2023-02-28T10:11:16;2.65;66.63
69938;DHT22;57248;47.320;15.998;2023-02-28T10:13:57;2.72;65.42
69938;DHT22;57248;47.320;15.998;2023-02-28T10:16:47;2.66;65.67
69938;DHT22;57248;47.320;15.998;2023-02-28T10:19:30;2.95;66.36
69938;DHT22;57248;47.320;15.998;2023-02-28T10:22:11;2.96;66.21
69938;DHT22;57248;47.320;15.998;2023-02-28T10:24:49;2.79;65.25
69938;DHT22;57248;47.320;15.998;2023-02-28T10:27:24;3.30;64.46
69938;DHT22;57248;47.320;15.998;2023-02-28T10:29:59;3.10;64.73
69938;DHT22;57248;47.320;15.998;2023-02-28T10:32:35;3.24;64.81
69938;DHT22;57248;47.320;15.998;2023-02-28T10:35:17;3.10;64.49
69938;DHT22;57248;47.320;15.998;2023-02-28T10:37:53;3.06;65.07
69938;DHT22;57248;47.320;15.998;2023-02-28T10:40:27;3.31;64.51
69938;DHT22;57248;47.320;15.998;2023-02-28T10:45:34;3.22;64.31
69938;DHT22;57248;47.320;15.998;2023-02-28T10:51:01;3.77;63.20
69938;DHT22;57248;47.320;15.998;2023-02-28T10:53:48;4.02;63.47
69938;DHT22;57248;47.320;15.998;2023-02-28T10:56:23;3.61;63.42
69938;DHT22;57248;47.320;15.998;2023-02-28T10:59:23;3.91;62.03
69938;DHT22;57248;47.320;15.998;2023-02-28T11:01:58;4.33;61.74
69938;DHT22;57248;47.320;15.998;2023-02-28T11:04:34;4.01;61.25
69938;DHT22;57248;47.320;15.998;2023-02-28T11:07:21;4.74;60.13
69938;DHT22;57248;47.320;15.998;2023-02-28T11:09:55;4.43;61.85
69938;DHT22;57248;47.320;15.998;2023-02-28T11:12:39;4.68;60.54
69938;DHT22;57248;47.320;15.998;2023-02-28T11:15:27;4.77;61.51
69938;DHT22;57248;47.320;15.998;2023-02-28T11:20:54;4.63;61.97
69938;DHT22;57248;47.320;15.998;2023-02-28T11:23:29;4.03;62.92
69938;DHT22;57248;47.320;15.998;2023-02-28T11:26:03;4.06;63.62
69938;DHT22;57248;47.320;15.998;2023-02-28T11:28:47;4.36;62.68
69938;DHT22;57248;47.320;15.998;2023-02-28T11:31:18;4.87;61.39
69938;DHT22;57248;47.320;15.998;2023-02-28T11:33:53;4.95;62.27
69938;DHT22;57248;47.320;15.998;2023-02-28T11:36:30;4.61;62.81
69938;DHT22;57248;47.320;15.998;2023-02-28T11:39:10;5.07;62.16
69938;DHT22;57248;47.320;15.998;2023-02-28T11:42:05;5.12;61.90
69938;DHT22;57248;47.320;15.998;2023-02-28T11:51:00;5.11;62.25
69938;DHT22;57248;47.320;15.998;2023-02-28T11:56:29;4.81;62.42
69938;DHT22;57248;47.320;15.998;2023-02-28T12:10:29;5.56;61.08
69938;DHT22;57248;47.320;15.998;2023-02-28T12:13:12;5.77;59.81
69938;DHT22;57248;47.320;15.998;2023-02-28T12:21:58;9.16;47.57
69938;DHT22;57248;47.320;15.998;2023-02-28T12:27:11;8.26;50.84
69938;DHT22;57248;47.320;15.998;2023-02-28T12:30:02;7.23;54.12
69938;DHT22;57248;47.320;15.998;2023-02-28T12:32:38;7.31;53.76
69938;DHT22;57248;47.320;15.998;2023-02-28T12:35:17;6.76;53.81
69938;DHT22;57248;47.320;15.998;2023-02-28T12:38:54;8.41;50.52
69938;DHT22;57248;47.320;15.998;2023-02-28T12:41:42;7.18;54.23
69938;DHT22;57248;47.320;15.998;2023-02-28T12:47:35;7.01;53.98
69938;DHT22;57248;47.320;15.998;2023-02-28T12:50:14;6.92;54.17
69938;DHT22;57248;47.320;15.998;2023-02-28T12:52:49;7.10;52.70
69938;DHT22;57248;47.320;15.998;2023-02-28T12:55:45;6.55;55.34
69938;DHT22;57248;47.320;15.998;2023-02-28T13:07:14;6.76;55.04
69938;DHT22;57248;47.320;15.998;2023-02-28T13:09:54;6.66;54.33
69938;DHT22;57248;47.320;15.998;2023-02-28T13:12:27;6.75;54.19
69938;DHT22;57248;47.320;15.998;2023-02-28T13:15:08;6.39;55.80
69938;DHT22;57248;47.320;15.998;2023-02-28T13:17:50;6.34;55.74
69938;DHT22;57248;47.320;15.998;2023-02-28T13:20:47;6.32;55.48
69938;DHT22;57248;47.320;15.998;2023-02-28T13:23:57;6.36;54.91
69938;DHT22;57248;47.320;15.998;2023-02-28T13:29:21;6.39;55.18
69938;DHT22;57248;47.320;15.998;2023-02-28T13:37:43;6.43;54.88
69938;DHT22;57248;47.320;15.998;2023-02-28T13:40:34;6.03;54.82
69938;DHT22;57248;47.320;15.998;2023-02-28T13:43:10;5.71;55.64
69938;DHT22;57248;47.320;15.998;2023-02-28T13:46:06;6.26;55.17
69938;DHT22;57248;47.320;15.998;2023-02-28T13:48:41;6.24;54.85
69938;DHT22;57248;47.320;15.998;2023-02-28T13:51:47;6.89;53.40
69938;DHT22;57248;47.320;15.998;2023-02-28T13:54:40;11.79;42.41
69938;DHT22;57248;47.320;15.998;2023-02-28T14:00:34;12.40;38.65
69938;DHT22;57248;47.320;15.998;2023-02-28T14:03:23;12.47;38.79
69938;DHT22;57248;47.320;15.998;2023-02-28T14:06:18;13.27;36.35
69938;DHT22;57248;47.320;15.998;2023-02-28T14:11:31;12.82;36.19
69938;DHT22;57248;47.320;15.998;2023-02-28T14:14:04;11.65;38.76
69938;DHT22;57248;47.320;15.998;2023-02-28T14:16:47;11.42;38.85
69938;DHT22;57248;47.320;15.998;2023-02-28T14:19:28;9.44;42.94
69938;DHT22;57248;47.320;15.998;2023-02-28T14:30:50;10.15;42.67
69938;DHT22;57248;47.320;15.998;2023-02-28T14:36:05;8.96;43.75
69938;DHT22;57248;47.320;15.998;2023-02-28T14:41:23;7.93;45.60
69938;DHT22;57248;47.320;15.998;2023-02-28T14:43:57;8.14;44.97
69938;DHT22;57248;47.320;15.998;2023-02-28T14:46:26;7.71;46.83
69938;DHT22;57248;47.320;15.998;2023-02-28T14:49:00;6.82;48.11
69938;DHT22;57248;47.320;15.998;2023-02-28T14:51:46;7.00;48.10
69938;DHT22;57248;47.320;15.998;2023-02-28T14:54:21;7.99;46.28
69938;DHT22;57248;47.320;15.998;2023-02-28T14:56:56;8.71;45.19
69938;DHT22;57248;47.320;15.998;2023-02-28T14:59:31;8.95;44.14
69938;DHT22;57248;47.320;15.998;2023-02-28T15:02:20;8.69;44.65
69938;DHT22;57248;47.320;15.998;2023-02-28T15:04:57;9.39;43.62
69938;DHT22;57248;47.320;15.998;2023-02-28T15:07:30;8.75;44.58
69938;DHT22;57248;47.320;15.998;2023-02-28T15:13:01;7.11;47.73
69938;DHT22;57248;47.320;15.998;2023-02-28T15:21:21;7.51;47.79
69938;DHT22;57248;47.320;15.998;2023-02-28T15:24:10;7.56;48.53
69938;DHT22;57248;47.320;15.998;2023-02-28T15:26:48;7.51;47.30
69938;DHT22;57248;47.320;15.998;2023-02-28T15:29:23;7.47;47.45
69938;DHT22;57248;47.320;15.998;2023-02-28T15:34:28;6.61;49.24
69938;DHT22;57248;47.320;15.998;2023-02-28T15:37:52;5.63;51.36
69938;DHT22;57248;47.320;15.998;2023-02-28T15:40:29;5.56;51.80
69938;DHT22;57248;47.320;15.998;2023-02-28T15:45:49;5.40;51.82
69938;DHT22;57248;47.320;15.998;2023-02-28T15:48:25;5.22;52.40
69938;DHT22;57248;47.320;15.998;2023-02-28T15:51:07;4.49;54.57
69938;DHT22;57248;47.320;15.998;2023-02-28T15:53:50;4.57;54.94
69938;DHT22;57248;47.320;15.998;2023-02-28T15:56:28;4.19;56.12
69938;DHT22;57248;47.320;15.998;2023-02-28T15:59:03;4.20;56.12
69938;DHT22;57248;47.320;15.998;2023-02-28T16:01:38;4.36;55.91
69938;DHT22;57248;47.320;15.998;2023-02-28T16:04:18;3.96;56.45
69938;DHT22;57248;47.320;15.998;2023-02-28T16:07:05;3.84;57.08
69938;DHT22;57248;47.320;15.998;2023-02-28T16:09:38;3.74;57.36
69938;DHT22;57248;47.320;15.998;2023-02-28T16:12:11;3.75;57.88
69938;DHT22;57248;47.320;15.998;2023-02-28T16:14:48;3.72;57.87
69938;DHT22;57248;47.320;15.998;2023-02-28T16:17:28;3.61;58.22
69938;DHT22;57248;47.320;15.998;2023-02-28T16:20:04;3.41;58.92
69938;DHT22;57248;47.320;15.998;2023-02-28T16:22:37;3.31;59.27
69938;DHT22;57248;47.320;15.998;2023-02-28T16:25:13;3.47;58.90
69938;DHT22;57248;47.320;15.998;2023-02-28T16:27:49;3.43;59.28
69938;DHT22;57248;47.320;15.998;2023-02-28T16:30:26;3.43;60.94
69938;DHT22;57248;47.320;15.998;2023-02-28T16:32:59;3.26;61.08
69938;DHT22;57248;47.320;15.998;2023-02-28T16:35:31;2.99;61.69
69938;DHT22;57248;47.320;15.998;2023-02-28T16:38:03;2.65;62.59
69938;DHT22;57248;47.320;15.998;2023-02-28T16:40:35;2.52;63.00
69938;DHT22;57248;47.320;15.998;2023-02-28T16:43:14;2.51;63.08
69938;DHT22;57248;47.320;15.998;2023-02-28T16:45:47;2.28;64.10
69938;DHT22;57248;47.320;15.998;2023-02-28T16:48:19;2.17;64.41
69938;DHT22;57248;47.320;15.998;2023-02-28T16:50:44;1.87;66.16
69938;DHT22;57248;47.320;15.998;2023-02-28T16:53:17;2.76;77.80
69938;DHT22;57248;47.320;15.998;2023-02-28T16:55:49;1.90;65.37
69938;DHT22;57248;47.320;15.998;2023-02-28T16:58:22;1.79;65.39
69938;DHT22;57248;47.320;15.998;2023-02-28T17:00:57;1.53;66.05
69938;DHT22;57248;47.320;15.998;2023-02-28T17:03:29;1.52;66.65
69938;DHT22;57248;47.320;15.998;2023-02-28T17:06:03;1.35;66.73
69938;DHT22;57248;47.320;15.998;2023-02-28T17:08:35;1.35;66.60
69938;DHT22;57248;47.320;15.998;2023-02-28T17:11:08;1.04;67.77
69938;DHT22;57248;47.320;15.998;2023-02-28T17:13:40;1.01;67.16
69938;DHT22;57248;47.320;15.998;2023-02-28T17:16:38;0.76;68.47
69938;DHT22;57248;47.320;15.998;2023-02-28T17:19:15;0.48;69.69
69938;DHT22;57248;47.320;15.998;2023-02-28T17:21:48;0.56;69.48
69938;DHT22;57248;47.320;15.998;2023-02-28T17:24:20;0.39;69.96
69938;DHT22;57248;47.320;15.998;2023-02-28T17:26:52;0.46;69.84
69938;DHT22;57248;47.320;15.998;2023-02-28T17:29:24;0.25;70.59
69938;DHT22;57248;47.320;15.998;2023-02-28T17:31:56;0.18;71.42
69938;DHT22;57248;47.320;15.998;2023-02-28T17:34:29;0.15;71.24
69938;DHT22;57248;47.320;15.998;2023-02-28T17:37:02;0.02;71.85
69938;DHT22;57248;47.320;15.998;2023-02-28T17:39:35;-0.05;72.05
69938;DHT22;57248;47.320;15.998;2023-02-28T17:42:07;-0.06;71.73
69938;DHT22;57248;47.320;15.998;2023-02-28T17:44:40;-0.23;72.19
69938;DHT22;57248;47.320;15.998;2023-02-28T17:47:05;-0.27;72.35
69938;DHT22;57248;47.320;15.998;2023-02-28T17:49:38;-0.63;74.31
69938;DHT22;57248;47.320;15.998;2023-02-28T17:52:16;-0.67;74.66
69938;DHT22;57248;47.320;15.998;2023-02-28T17:54:49;-0.52;73.82
69938;DHT22;57248;47.320;15.998;2023-02-28T17:57:15;-0.64;73.74
69938;DHT22;57248;47.320;15.998;2023-02-28T17:59:48;-0.54;72.83
69938;DHT22;57248;47.320;15.998;2023-02-28T18:02:14;-0.73;73.76
69938;DHT22;57248;47.320;15.998;2023-02-28T18:04:46;-0.70;73.97
69938;DHT22;57248;47.320;15.998;2023-02-28T18:07:20;-0.75;74.25
69938;DHT22;57248;47.320;15.998;2023-02-28T18:09:54;-0.80;74.63
69938;DHT22;57248;47.320;15.998;2023-02-28T18:12:26;-0.57;75.99
69938;DHT22;57248;47.320;15.998;2023-02-28T18:14:58;-0.84;74.08
69938;DHT22;57248;47.320;15.998;2023-02-28T18:17:30;-0.95;75.11
69938;DHT22;57248;47.320;15.998;2023-02-28T18:20:03;-1.09;75.19